Pagrindinis puslapis
METAR-TAF:

METAR-TAF

Oro uostai :

Solnokas, Vengrija

platuma: 47-07N, ilguma: 020-14E, Aukštis: 89 m

Dabartinis oras

Ataskaita buvo paskelbta 36 minutes, ne 04:45 UTC
Vėjas 4 kt iš Pietryčių
Temperatūra -2°C
Drėgmė 100%
Slėgis 1026 hPa
Matomumas: 0600 m
Apsiniaukę ne aukštis 200 ft
įšaldymas rūko

METAR: LHSN 060445Z 13004KT 0600 R02/1100D FZFG OVC002 M02/M02 Q1026 NOSIG RMK RED

Laikas: 06:21 (05:21 UTC)

Prognozė

Ataskaita buvo paskelbta 6 valandos ir 6 minutes, ne 23:15 UTC
Prognozė galioja nuo 06 metu 00 UTC su 06 metu 09 UTC
Vėjas 3 kt nuo kintamojo kryptimis
Matomumas: 5000 m
Apsiniaukę ne aukštis 600 ft
rūkana
Laikinai
nuo 06 metu 00 UTC su 06 metu 09 UTC
Matomumas: 3000 m
Apsiniaukę ne aukštis 400 ft
rūkana
Tikimybė 30% :
Laikinai
nuo 06 metu 00 UTC su 06 metu 09 UTC
Matomumas: 0800 m
ne aukštis 200 ft
įšaldymas rūko

TAF: LHSN 052315Z 0600/0609 VRB03KT 5000 BR OVC006 TEMPO 0600/0609 3000 BR OVC004 PROB30 TEMPO 0600/0609 0800 FZFG VV002

Orai ataskaitas ir orų prognozės (METAR, TAF).

turimą stotys yra geltonos ir raudonos taškus žemėlapyje.

Perkelti pele per norėdami pamatyti stoties vardą.

Tada spustelėkite, norėdami matyti oro stebėjimo ir prognozės.

Norėdami pakeisti žemėlapį: spustelėkite ant žalios mygtukų su juodo kryžiaus žemyn,; žalią mygtuką su brūkšneliu, jei norite nutolinti; arba žalių rodyklių gretimoms žemėlapius.


METAR-TAF: